KSUS

Spirit of St Louis Airport

St Louis, Missouri, USA
KSUS 190212Z 1902/1924 11014G21KT 4SM -DZ BR OVC006 FM190400 09014G20KT 4SM -RA BR OVC006 FM190900 03013G19KT 2SM RA BR OVC005 FM191300 02015G22KT 1/2SM SN OVC005 FM191800 36017G30KT 1/2SM SN OVC006 FM192300 35018G28KT 5SM BLSN OVC010
Issued Valid From Valid To
Jan-19 @ 02:12 UTC
(15 minutes ago)
Jan-19 @ 02:00 UTC
(27 minutes ago)
Jan-20 @ 00:00 UTC
(in 22 hours)
Jan-19 @ 02:00 to Jan-19 @ 04:00
KSUS 190212Z 1902/1924 11014G21KT 4SM -DZ BR OVC006
Wind Visibility Clouds Conditions
110° at 14 knots
 Gusting to 21 knots
4 miles
  • Overcast at 600' AGL
  • Light Drizzle
  • Mist
From Jan-19 @ 04:00 to Jan-19 @ 09:00
FM190400 09014G20KT 4SM -RA BR OVC006
Wind Visibility Clouds Conditions
90° at 14 knots
 Gusting to 20 knots
4 miles
  • Overcast at 600' AGL
  • Light Rain
  • Mist
From Jan-19 @ 09:00 to Jan-19 @ 13:00
FM190900 03013G19KT 2SM RA BR OVC005
Wind Visibility Clouds Conditions
30° at 13 knots
 Gusting to 19 knots
2 miles
  • Overcast at 500' AGL
  • Rain
  • Mist
From Jan-19 @ 13:00 to Jan-19 @ 18:00
FM191300 02015G22KT 1/2SM SN OVC005
Wind Visibility Clouds Conditions
20° at 15 knots
 Gusting to 22 knots
1/2 miles
  • Overcast at 500' AGL
  • Snow
From Jan-19 @ 18:00 to Jan-19 @ 23:00
FM191800 36017G30KT 1/2SM SN OVC006
Wind Visibility Clouds Conditions
360° at 17 knots
 Gusting to 30 knots
1/2 miles
  • Overcast at 600' AGL
  • Snow
From Jan-19 @ 23:00 to Jan-20 @ 00:00
FM192300 35018G28KT 5SM BLSN OVC010
Wind Visibility Clouds Conditions
350° at 18 knots
 Gusting to 28 knots
5 miles
  • Overcast at 1,000' AGL
  • Blowing
  • Snow
KSUS 190212Z 1902/1924 11014G21KT 4SM -DZ BR OVC006 FM190400 09014G20KT 4SM -RA BR OVC006 FM190900 03013G19KT 2SM RA BR OVC005 FM191300 02015G22KT 1/2SM SN OVC005 FM191800 36017G30KT 1/2SM SN OVC006 FM192300 35018G28KT 5SM BLSN OVC010
Issued Jan-19 @ 02:12 UTC
(15 minutes ago)
Valid From Jan-19 @ 02:00 UTC
(27 minutes ago)
Valid To Jan-20 @ 00:00 UTC
(in 22 hours)
Jan-19 @ 02:00 - Jan-19 @ 04:00
Wind Visibility
110° at 14 knots
 Gusting to 21 knots
4 miles
Clouds
  • Overcast at 600' AGL
Conditions
  • Light Drizzle
  • Mist
From Jan-19 @ 04:00 - Jan-19 @ 09:00
Wind Visibility
90° at 14 knots
 Gusting to 20 knots
4 miles
Clouds
  • Overcast at 600' AGL
Conditions
  • Light Rain
  • Mist
From Jan-19 @ 09:00 - Jan-19 @ 13:00
Wind Visibility
30° at 13 knots
 Gusting to 19 knots
2 miles
Clouds
  • Overcast at 500' AGL
Conditions
  • Rain
  • Mist
From Jan-19 @ 13:00 - Jan-19 @ 18:00
Wind Visibility
20° at 15 knots
 Gusting to 22 knots
1/2 miles
Clouds
  • Overcast at 500' AGL
Conditions
  • Snow
From Jan-19 @ 18:00 - Jan-19 @ 23:00
Wind Visibility
360° at 17 knots
 Gusting to 30 knots
1/2 miles
Clouds
  • Overcast at 600' AGL
Conditions
  • Snow
From Jan-19 @ 23:00 - Jan-20 @ 00:00
Wind Visibility
350° at 18 knots
 Gusting to 28 knots
5 miles
Clouds
  • Overcast at 1,000' AGL
Conditions
  • Blowing
  • Snow